Time;durP1;ratioP1;P1;durP2;ratioP2;P2;SDS_P1;SDS_P2;PMS_P1;PMS_P2;Temp;Humidity;BMP_temperature;BMP_pressure;BME280_temperature;BME280_humidity;BME280_pressure;Samples;Min_cycle;Max_cycle;Signal;HPM_P1;HPM_P2
2022/10/24 00:00:10;;;;;;;13.32;5.07;;;;;;;;;;628065;23;1396;-66
2022/10/24 00:01:20;;;;;;;13.32;4.70;;;;;;;;;;626386;23;915;-66
2022/10/24 00:02:28;;;;;;;12.85;5.35;;;;;;;;;;630109;23;1997;-66
2022/10/24 00:03:36;;;;;;;11.77;5.13;;;;;;;;;;626893;23;1107;-66
2022/10/24 00:04:44;;;;;;;14.43;5.25;;;;;;;;;;631228;23;1362;-66
2022/10/24 00:05:52;;;;;;;10.18;5.25;;;;;;;;;;632685;23;1224;-66
2022/10/24 00:07:01;;;;;;;14.57;5.50;;;;;;;;;;633664;23;855;-66
2022/10/24 00:08:09;;;;;;;12.45;5.43;;;;;;;;;;629430;23;1080;-66
2022/10/24 00:09:17;;;;;;;12.80;4.85;;;;;;;;;;627974;23;1370;-67
2022/10/24 00:10:26;;;;;;;9.93;4.75;;;;;;;;;;627956;23;1390;-66
2022/10/24 00:11:40;;;;;;;12.75;5.10;;;;;;;;;;628059;23;1354;-66
2022/10/24 00:12:48;;;;;;;13.30;4.80;;;;;;;;;;628061;23;1213;-66
2022/10/24 00:13:56;;;;;;;12.07;5.05;;;;;;;;;;630433;23;1335;-66
2022/10/24 00:15:05;;;;;;;10.23;5.03;;;;;;;;;;627185;23;1374;-66
2022/10/24 00:16:13;;;;;;;11.65;5.05;;;;;;;;;;624776;23;1328;-66
2022/10/24 00:17:21;;;;;;;15.80;5.43;;;;;;;;;;631214;23;1044;-66
2022/10/24 00:18:29;;;;;;;16.00;5.85;;;;;;;;;;634038;23;865;-66
2022/10/24 00:19:37;;;;;;;14.05;5.47;;;;;;;;;;630335;23;1381;-66
2022/10/24 00:20:44;;;;;;;13.80;5.95;;;;;;;;;;630980;23;903;-66
2022/10/24 00:21:53;;;;;;;13.15;5.47;;;;;;;;;;630589;23;1196;-67
2022/10/24 00:23:00;;;;;;;16.52;6.00;;;;;;;;;;627155;23;1228;-67
2022/10/24 00:24:08;;;;;;;12.10;5.18;;;;;;;;;;627236;23;1299;-66
2022/10/24 00:25:16;;;;;;;11.18;5.25;;;;;;;;;;627716;23;1067;-66
2022/10/24 00:26:24;;;;;;;14.80;5.40;;;;;;;;;;628137;23;954;-66
2022/10/24 00:27:33;;;;;;;12.57;5.40;;;;;;;;;;630086;23;906;-66
2022/10/24 00:28:41;;;;;;;12.05;5.30;;;;;;;;;;627930;23;1259;-66
2022/10/24 00:29:49;;;;;;;11.88;5.30;;;;;;;;;;630281;23;860;-66
2022/10/24 00:30:57;;;;;;;11.48;5.00;;;;;;;;;;627633;23;1350;-66
2022/10/24 00:32:06;;;;;;;13.75;5.60;;;;;;;;;;627020;23;1260;-66
2022/10/24 00:33:14;;;;;;;11.90;5.43;;;;;;;;;;627909;23;1328;-66
2022/10/24 00:34:22;;;;;;;11.10;5.40;;;;;;;;;;627274;23;1427;-66
2022/10/24 00:35:32;;;;;;;16.10;5.57;;;;;;;;;;628195;23;1552;-66
2022/10/24 00:36:40;;;;;;;15.30;5.55;;;;;;;;;;630245;23;1355;-66
2022/10/24 00:37:48;;;;;;;12.93;5.50;;;;;;;;;;630715;23;1339;-66
2022/10/24 00:38:56;;;;;;;13.05;4.93;;;;;;;;;;626357;23;1327;-66
2022/10/24 00:40:05;;;;;;;13.73;5.07;;;;;;;;;;631098;23;1388;-66
2022/10/24 00:41:14;;;;;;;11.38;5.32;;;;;;;;;;630476;23;902;-66
2022/10/24 00:42:24;;;;;;;12.30;5.35;;;;;;;;;;627624;23;1363;-66
2022/10/24 00:43:32;;;;;;;14.63;5.55;;;;;;;;;;626932;23;1438;-66
2022/10/24 00:44:41;;;;;;;10.30;4.50;;;;;;;;;;628067;23;1397;-66
2022/10/24 00:45:49;;;;;;;15.07;5.03;;;;;;;;;;630148;23;1359;-65
2022/10/24 00:47:01;;;;;;;12.07;5.35;;;;;;;;;;630837;23;1091;-66
2022/10/24 00:48:15;;;;;;;14.25;5.15;;;;;;;;;;627500;23;1221;-66
2022/10/24 00:49:54;;;;;;;11.25;4.72;;;;;;;;;;629933;23;922;-65
2022/10/24 00:51:04;;;;;;;14.77;5.40;;;;;;;;;;630250;23;1259;-66
2022/10/24 00:52:16;;;;;;;13.95;5.15;;;;;;;;;;630805;23;986;-66
2022/10/24 00:53:28;;;;;;;14.70;5.30;;;;;;;;;;631109;23;1266;-65
2022/10/24 00:54:38;;;;;;;17.05;5.28;;;;;;;;;;624299;23;1323;-66
2022/10/24 00:55:49;;;;;;;10.43;5.20;;;;;;;;;;625076;23;919;-66
2022/10/24 00:57:03;;;;;;;16.88;5.90;;;;;;;;;;630722;23;788;-66
2022/10/24 00:58:12;;;;;;;14.77;5.70;;;;;;;;;;630153;23;1391;-66
2022/10/24 00:59:21;;;;;;;12.45;6.07;;;;;;;;;;631440;23;889;-66
2022/10/24 01:00:32;;;;;;;14.55;5.97;;;;;;;;;;630603;23;989;-66
2022/10/24 01:01:41;;;;;;;16.00;5.78;;;;;;;;;;630599;23;919;-66
2022/10/24 01:02:49;;;;;;;11.85;5.55;;;;;;;;;;627747;23;1149;-66
2022/10/24 01:03:57;;;;;;;13.25;5.38;;;;;;;;;;629923;23;1560;-66
2022/10/24 01:05:07;;;;;;;15.73;5.55;;;;;;;;;;633664;23;1438;-64
2022/10/24 01:06:28;;;;;;;13.75;5.63;;;;;;;;;;631010;23;1247;-66
2022/10/24 01:07:54;;;;;;;10.45;5.40;;;;;;;;;;627493;23;1279;-66
2022/10/24 01:09:21;;;;;;;12.77;5.63;;;;;;;;;;630371;23;895;-66
2022/10/24 01:10:41;;;;;;;11.48;5.28;;;;;;;;;;631405;23;1407;-66
2022/10/24 01:11:48;;;;;;;14.55;5.43;;;;;;;;;;630538;23;926;-66
2022/10/24 01:13:46;;;;;;;11.27;5.28;;;;;;;;;;630496;23;1252;-66
2022/10/24 01:15:00;;;;;;;11.43;4.90;;;;;;;;;;630253;23;1276;-66
2022/10/24 01:16:26;;;;;;;12.32;5.45;;;;;;;;;;628468;23;1256;-66
2022/10/24 01:17:45;;;;;;;12.90;5.45;;;;;;;;;;627502;23;1082;-66
2022/10/24 01:19:15;;;;;;;14.30;5.95;;;;;;;;;;631302;23;865;-66
2022/10/24 01:20:51;;;;;;;14.27;5.88;;;;;;;;;;630092;23;1216;-66
2022/10/24 01:22:50;;;;;;;15.15;6.10;;;;;;;;;;624824;23;1110;-66
2022/10/24 01:24:35;;;;;;;14.57;5.93;;;;;;;;;;623546;23;1960;-66
2022/10/24 01:25:54;;;;;;;13.15;5.55;;;;;;;;;;634043;23;907;-66
2022/10/24 01:27:17;;;;;;;18.45;6.07;;;;;;;;;;630631;23;1344;-66
2022/10/24 01:28:41;;;;;;;13.23;5.65;;;;;;;;;;630562;23;1411;-66
2022/10/24 01:30:09;;;;;;;13.07;5.47;;;;;;;;;;628136;23;1351;-66
2022/10/24 01:31:24;;;;;;;14.30;5.50;;;;;;;;;;627831;23;1225;-66
2022/10/24 01:32:44;;;;;;;15.32;5.80;;;;;;;;;;627562;23;1351;-66
2022/10/24 01:34:03;;;;;;;14.27;5.47;;;;;;;;;;628033;23;1366;-66
2022/10/24 01:35:48;;;;;;;17.77;5.93;;;;;;;;;;628505;23;1229;-66
2022/10/24 01:37:05;;;;;;;13.75;5.80;;;;;;;;;;628117;23;923;-66
2022/10/24 01:38:21;;;;;;;16.25;5.57;;;;;;;;;;630281;23;1463;-66
2022/10/24 01:39:36;;;;;;;19.00;5.93;;;;;;;;;;626779;23;922;-66
2022/10/24 01:40:55;;;;;;;18.95;5.68;;;;;;;;;;627704;23;1273;-66
2022/10/24 01:42:06;;;;;;;19.73;5.55;;;;;;;;;;631110;23;954;-66
2022/10/24 01:43:17;;;;;;;13.07;5.13;;;;;;;;;;630739;23;911;-66
2022/10/24 01:44:43;;;;;;;13.23;5.50;;;;;;;;;;630497;23;792;-66
2022/10/24 01:45:56;;;;;;;17.85;5.28;;;;;;;;;;631167;23;1263;-66
2022/10/24 01:47:29;;;;;;;17.02;5.20;;;;;;;;;;628155;23;1304;-66
2022/10/24 01:48:43;;;;;;;10.63;4.25;;;;;;;;;;624544;23;894;-66
2022/10/24 01:50:01;;;;;;;12.07;3.78;;;;;;;;;;630946;23;1066;-66
2022/10/24 01:51:12;;;;;;;13.32;4.20;;;;;;;;;;630084;23;1101;-66
2022/10/24 01:52:22;;;;;;;13.23;4.53;;;;;;;;;;627917;23;1264;-65
2022/10/24 01:53:31;;;;;;;12.13;4.55;;;;;;;;;;627839;23;1382;-66
2022/10/24 01:54:41;;;;;;;14.27;5.15;;;;;;;;;;628458;23;1380;-66
2022/10/24 01:55:49;;;;;;;11.73;4.03;;;;;;;;;;631429;23;1805;-66
2022/10/24 01:56:57;;;;;;;10.43;4.30;;;;;;;;;;630853;23;1253;-66
2022/10/24 01:58:06;;;;;;;13.25;4.03;;;;;;;;;;628272;23;1299;-66
2022/10/24 01:59:29;;;;;;;11.32;4.30;;;;;;;;;;630859;23;983;-66
2022/10/24 02:00:38;;;;;;;14.15;4.68;;;;;;;;;;631139;23;1323;-66
2022/10/24 02:01:49;;;;;;;16.38;5.07;;;;;;;;;;627979;23;1225;-66
2022/10/24 02:03:01;;;;;;;16.67;5.30;;;;;;;;;;628074;23;1213;-65
2022/10/24 02:04:18;;;;;;;14.48;5.00;;;;;;;;;;627558;23;2422;-66
2022/10/24 02:05:41;;;;;;;15.55;5.35;;;;;;;;;;628254;23;2022;-66
2022/10/24 02:06:56;;;;;;;14.13;4.72;;;;;;;;;;627543;23;1019;-66
2022/10/24 02:08:09;;;;;;;13.65;4.97;;;;;;;;;;627445;23;1320;-66
2022/10/24 02:09:20;;;;;;;15.50;4.78;;;;;;;;;;627099;23;1251;-66
2022/10/24 02:10:36;;;;;;;14.70;4.55;;;;;;;;;;630992;23;1386;-66
2022/10/24 02:11:47;;;;;;;14.23;4.35;;;;;;;;;;634476;23;831;-66
2022/10/24 02:13:00;;;;;;;12.00;4.20;;;;;;;;;;633773;23;1199;-66
2022/10/24 02:14:13;;;;;;;10.27;4.30;;;;;;;;;;629996;23;875;-66
2022/10/24 02:15:50;;;;;;;7.88;3.60;;;;;;;;;;630912;23;851;-66
2022/10/24 02:16:59;;;;;;;9.57;3.63;;;;;;;;;;627837;23;1296;-66
2022/10/24 02:18:09;;;;;;;6.90;3.20;;;;;;;;;;630665;23;1069;-66
2022/10/24 02:19:17;;;;;;;8.57;3.30;;;;;;;;;;630337;23;1245;-66
2022/10/24 02:20:38;;;;;;;10.20;3.67;;;;;;;;;;627093;23;979;-66
2022/10/24 02:21:52;;;;;;;12.35;4.00;;;;;;;;;;627320;23;1281;-65
2022/10/24 02:23:24;;;;;;;10.65;4.13;;;;;;;;;;627701;23;1371;-66
2022/10/24 02:25:02;;;;;;;9.27;3.75;;;;;;;;;;627740;23;1355;-66
2022/10/24 02:26:36;;;;;;;9.70;4.18;;;;;;;;;;630609;23;1559;-66
2022/10/24 02:27:59;;;;;;;11.77;4.30;;;;;;;;;;629914;23;1253;-66
2022/10/24 02:29:13;;;;;;;10.25;4.07;;;;;;;;;;627750;23;1397;-66
2022/10/24 02:30:28;;;;;;;9.30;4.00;;;;;;;;;;627983;23;1372;-66
2022/10/24 02:31:44;;;;;;;10.00;4.60;;;;;;;;;;627593;23;1357;-66
2022/10/24 02:32:57;;;;;;;11.05;4.10;;;;;;;;;;627886;23;1232;-66
2022/10/24 02:34:07;;;;;;;12.15;4.90;;;;;;;;;;627335;23;1426;-66
2022/10/24 02:35:18;;;;;;;10.13;4.55;;;;;;;;;;630329;23;831;-66
2022/10/24 02:36:29;;;;;;;12.43;4.82;;;;;;;;;;631706;23;914;-66
2022/10/24 02:37:44;;;;;;;15.73;5.20;;;;;;;;;;628136;23;1420;-66
2022/10/24 02:38:56;;;;;;;13.05;5.05;;;;;;;;;;625265;23;1414;-66
2022/10/24 02:40:06;;;;;;;13.18;5.20;;;;;;;;;;627692;23;795;-66
2022/10/24 02:41:18;;;;;;;16.50;5.30;;;;;;;;;;628037;23;1252;-66
2022/10/24 02:42:28;;;;;;;14.30;4.55;;;;;;;;;;628139;23;1356;-66
2022/10/24 02:43:39;;;;;;;13.75;4.88;;;;;;;;;;631112;23;1187;-66
2022/10/24 02:44:47;;;;;;;13.73;4.90;;;;;;;;;;631120;23;1310;-66
2022/10/24 02:45:57;;;;;;;18.23;4.85;;;;;;;;;;631361;23;1056;-66
2022/10/24 02:47:07;;;;;;;12.73;3.95;;;;;;;;;;630985;23;1041;-66
2022/10/24 02:48:17;;;;;;;12.45;4.35;;;;;;;;;;631704;23;983;-66
2022/10/24 02:49:27;;;;;;;15.32;4.40;;;;;;;;;;631258;23;1486;-66
2022/10/24 02:50:36;;;;;;;17.67;4.88;;;;;;;;;;628344;23;1445;-63
2022/10/24 02:51:45;;;;;;;11.55;3.60;;;;;;;;;;630826;23;851;-66
2022/10/24 02:52:53;;;;;;;7.10;3.35;;;;;;;;;;630932;23;927;-66
2022/10/24 02:54:05;;;;;;;14.33;4.17;;;;;;;;;;630165;23;1215;-66
2022/10/24 02:55:13;;;;;;;12.00;3.58;;;;;;;;;;631674;23;974;-66
2022/10/24 02:56:21;;;;;;;13.05;4.57;;;;;;;;;;630490;23;1418;-66
2022/10/24 02:57:31;;;;;;;14.70;4.50;;;;;;;;;;627938;23;1169;-66
2022/10/24 02:58:39;;;;;;;11.43;4.70;;;;;;;;;;627705;23;1292;-66
2022/10/24 02:59:47;;;;;;;13.88;4.57;;;;;;;;;;631240;23;898;-66
2022/10/24 03:00:56;;;;;;;15.50;4.40;;;;;;;;;;630606;23;1260;-66
2022/10/24 03:02:03;;;;;;;24.60;13.98;;;;;;;;;;627994;23;984;-66
2022/10/24 03:03:12;;;;;;;16.33;6.60;;;;;;;;;;631050;23;1303;-66
2022/10/24 03:04:19;;;;;;;14.13;6.05;;;;;;;;;;627977;23;1267;-66
2022/10/24 03:05:27;;;;;;;15.70;6.53;;;;;;;;;;631083;23;1971;-66
2022/10/24 03:06:35;;;;;;;11.93;4.13;;;;;;;;;;633713;23;923;-66
2022/10/24 03:07:43;;;;;;;10.27;3.40;;;;;;;;;;630958;23;1269;-66
2022/10/24 03:08:51;;;;;;;10.20;3.50;;;;;;;;;;627612;23;1277;-66
2022/10/24 03:09:59;;;;;;;7.45;2.85;;;;;;;;;;628061;23;1280;-66
2022/10/24 03:11:07;;;;;;;10.82;3.70;;;;;;;;;;630676;23;960;-66
2022/10/24 03:12:15;;;;;;;9.80;3.80;;;;;;;;;;630957;23;1134;-65
2022/10/24 03:13:23;;;;;;;10.63;3.65;;;;;;;;;;631355;23;890;-66
2022/10/24 03:14:31;;;;;;;10.60;4.00;;;;;;;;;;630841;23;1057;-66
2022/10/24 03:15:39;;;;;;;10.57;3.83;;;;;;;;;;631384;23;1061;-66
2022/10/24 03:16:47;;;;;;;8.57;4.07;;;;;;;;;;631145;23;831;-65
2022/10/24 03:17:55;;;;;;;9.85;3.90;;;;;;;;;;628487;23;1216;-66
2022/10/24 03:19:03;;;;;;;10.40;4.40;;;;;;;;;;629811;23;1272;-66
2022/10/24 03:20:11;;;;;;;10.20;4.30;;;;;;;;;;630550;23;922;-66
2022/10/24 03:21:19;;;;;;;14.45;4.88;;;;;;;;;;633386;23;1326;-66
2022/10/24 03:22:26;;;;;;;12.63;5.15;;;;;;;;;;628257;23;1440;-66
2022/10/24 03:23:34;;;;;;;12.05;5.18;;;;;;;;;;622156;23;1256;-66
2022/10/24 03:24:42;;;;;;;13.65;5.65;;;;;;;;;;627852;23;904;-66
2022/10/24 03:25:50;;;;;;;14.75;5.03;;;;;;;;;;627398;23;1894;-66
2022/10/24 03:26:58;;;;;;;14.18;4.88;;;;;;;;;;628021;23;831;-66
2022/10/24 03:28:06;;;;;;;10.20;4.63;;;;;;;;;;630319;23;1582;-66
2022/10/24 03:29:14;;;;;;;10.75;5.22;;;;;;;;;;630726;23;1043;-66
2022/10/24 03:30:21;;;;;;;10.57;4.68;;;;;;;;;;631185;23;1185;-66
2022/10/24 03:31:30;;;;;;;10.48;4.43;;;;;;;;;;630220;23;1588;-66
2022/10/24 03:32:38;;;;;;;9.90;4.60;;;;;;;;;;628485;23;1389;-66
2022/10/24 03:33:46;;;;;;;7.50;3.97;;;;;;;;;;627346;23;894;-66
2022/10/24 03:34:54;;;;;;;9.05;4.10;;;;;;;;;;630523;23;2064;-66
2022/10/24 03:36:02;;;;;;;9.35;3.70;;;;;;;;;;630555;23;823;-66
2022/10/24 03:37:10;;;;;;;9.00;4.03;;;;;;;;;;631350;23;1593;-66
2022/10/24 03:38:18;;;;;;;9.55;3.53;;;;;;;;;;628003;23;1283;-66
2022/10/24 03:39:26;;;;;;;9.38;3.58;;;;;;;;;;627096;23;1327;-66
2022/10/24 03:40:35;;;;;;;9.10;3.90;;;;;;;;;;628089;23;1197;-66
2022/10/24 03:41:42;;;;;;;9.52;3.65;;;;;;;;;;627991;23;1307;-66
2022/10/24 03:42:51;;;;;;;7.20;3.38;;;;;;;;;;627621;23;1388;-66
2022/10/24 03:43:58;;;;;;;7.85;3.80;;;;;;;;;;629120;23;1308;-66
2022/10/24 03:45:06;;;;;;;8.70;4.30;;;;;;;;;;627884;23;1361;-66
2022/10/24 03:46:14;;;;;;;13.13;4.93;;;;;;;;;;627331;23;1910;-66
2022/10/24 03:47:22;;;;;;;13.70;5.18;;;;;;;;;;631436;23;1065;-66
2022/10/24 03:48:30;;;;;;;15.27;5.00;;;;;;;;;;631113;23;784;-66
2022/10/24 03:49:38;;;;;;;14.40;5.30;;;;;;;;;;633544;23;1213;-66
2022/10/24 03:50:46;;;;;;;14.88;4.70;;;;;;;;;;630762;23;1406;-66
2022/10/24 03:51:54;;;;;;;16.75;4.72;;;;;;;;;;627989;23;1240;-65
2022/10/24 03:53:02;;;;;;;14.63;4.90;;;;;;;;;;630855;23;1305;-66
2022/10/24 03:54:11;;;;;;;17.15;4.80;;;;;;;;;;630111;23;1241;-66
2022/10/24 03:55:19;;;;;;;15.65;4.50;;;;;;;;;;627986;23;1525;-66
2022/10/24 03:56:27;;;;;;;14.40;4.32;;;;;;;;;;627906;23;1501;-66
2022/10/24 03:57:35;;;;;;;12.93;5.10;;;;;;;;;;624617;23;1273;-66
2022/10/24 03:58:43;;;;;;;16.00;4.72;;;;;;;;;;630935;23;1360;-65
2022/10/24 03:59:51;;;;;;;15.82;4.45;;;;;;;;;;630613;23;1244;-66
2022/10/24 04:00:59;;;;;;;15.10;4.57;;;;;;;;;;630813;23;951;-66
2022/10/24 04:02:07;;;;;;;14.57;4.30;;;;;;;;;;630797;23;1280;-66
2022/10/24 04:03:15;;;;;;;13.80;4.38;;;;;;;;;;628044;23;1391;-66
2022/10/24 04:04:23;;;;;;;13.98;4.22;;;;;;;;;;630621;23;1074;-66
2022/10/24 04:05:32;;;;;;;15.90;4.15;;;;;;;;;;634385;23;1660;-66
2022/10/24 04:06:41;;;;;;;14.55;4.32;;;;;;;;;;633108;23;1927;-66
2022/10/24 04:07:49;;;;;;;11.63;3.95;;;;;;;;;;630765;23;1157;-66
2022/10/24 04:08:57;;;;;;;14.73;4.25;;;;;;;;;;626774;23;1419;-66
2022/10/24 04:10:05;;;;;;;14.85;4.28;;;;;;;;;;627549;23;1346;-66
2022/10/24 04:11:13;;;;;;;12.82;4.38;;;;;;;;;;627211;23;1276;-65
2022/10/24 04:12:21;;;;;;;12.43;3.80;;;;;;;;;;631102;23;800;-66
2022/10/24 04:13:29;;;;;;;8.02;3.10;;;;;;;;;;630963;23;1946;-66
2022/10/24 04:14:37;;;;;;;10.38;3.65;;;;;;;;;;628334;23;1313;-66
2022/10/24 04:15:45;;;;;;;10.50;3.58;;;;;;;;;;627910;23;1272;-66
2022/10/24 04:16:53;;;;;;;9.55;3.40;;;;;;;;;;630817;23;1310;-66
2022/10/24 04:18:01;;;;;;;11.00;3.53;;;;;;;;;;630431;23;1201;-66
2022/10/24 04:19:09;;;;;;;9.90;3.40;;;;;;;;;;630569;23;1287;-65
2022/10/24 04:20:19;;;;;;;11.73;3.60;;;;;;;;;;630949;23;962;-66
2022/10/24 04:21:27;;;;;;;8.45;3.10;;;;;;;;;;627761;23;921;-66
2022/10/24 04:22:35;;;;;;;11.45;3.78;;;;;;;;;;628309;23;1348;-66
2022/10/24 04:23:43;;;;;;;9.40;3.85;;;;;;;;;;628094;23;1502;-66
2022/10/24 04:24:51;;;;;;;10.68;3.40;;;;;;;;;;624661;23;2111;-66
2022/10/24 04:25:59;;;;;;;7.43;3.30;;;;;;;;;;627150;23;1295;-66
2022/10/24 04:27:07;;;;;;;11.32;3.42;;;;;;;;;;630843;23;883;-66
2022/10/24 04:28:15;;;;;;;8.65;3.67;;;;;;;;;;627851;23;836;-66
2022/10/24 04:29:23;;;;;;;9.88;3.60;;;;;;;;;;628115;23;1510;-66
2022/10/24 04:30:31;;;;;;;12.57;4.60;;;;;;;;;;629821;23;1391;-65
2022/10/24 04:31:39;;;;;;;14.15;4.85;;;;;;;;;;625034;23;1277;-66
2022/10/24 04:32:46;;;;;;;10.07;4.28;;;;;;;;;;627990;23;1256;-66
2022/10/24 04:33:54;;;;;;;9.00;3.60;;;;;;;;;;634097;23;835;-66
2022/10/24 04:35:02;;;;;;;8.95;3.25;;;;;;;;;;630796;23;1212;-66
2022/10/24 04:36:10;;;;;;;9.05;3.40;;;;;;;;;;626914;23;1475;-66
2022/10/24 04:37:18;;;;;;;10.88;4.35;;;;;;;;;;624615;23;1361;-66
2022/10/24 04:38:26;;;;;;;14.13;4.20;;;;;;;;;;628173;23;1447;-64
2022/10/24 04:39:34;;;;;;;15.35;4.43;;;;;;;;;;631000;23;1688;-66
2022/10/24 04:40:46;;;;;;;12.18;4.50;;;;;;;;;;627952;23;1915;-66
2022/10/24 04:41:54;;;;;;;10.95;3.65;;;;;;;;;;630786;23;1296;-66
2022/10/24 04:43:02;;;;;;;12.63;3.55;;;;;;;;;;630368;23;1541;-67
2022/10/24 04:44:11;;;;;;;13.43;4.18;;;;;;;;;;630317;23;1350;-66
2022/10/24 04:45:19;;;;;;;11.05;4.03;;;;;;;;;;630557;23;1037;-67
2022/10/24 04:46:27;;;;;;;14.65;4.30;;;;;;;;;;630824;23;2072;-66
2022/10/24 04:47:35;;;;;;;13.20;4.05;;;;;;;;;;627843;23;1302;-66
2022/10/24 04:48:43;;;;;;;10.93;3.83;;;;;;;;;;630410;23;1069;-66
2022/10/24 04:49:51;;;;;;;10.85;3.47;;;;;;;;;;630746;23;1616;-66
2022/10/24 04:50:59;;;;;;;9.55;3.80;;;;;;;;;;627954;23;2175;-66
2022/10/24 04:52:07;;;;;;;10.98;3.50;;;;;;;;;;628323;23;820;-66
2022/10/24 04:53:15;;;;;;;9.00;3.45;;;;;;;;;;627821;23;1339;-67
2022/10/24 04:54:23;;;;;;;9.60;3.33;;;;;;;;;;624335;23;1256;-67
2022/10/24 04:55:31;;;;;;;12.27;3.75;;;;;;;;;;627611;23;1496;-65
2022/10/24 04:56:39;;;;;;;14.15;4.13;;;;;;;;;;630612;23;868;-65
2022/10/24 04:57:47;;;;;;;15.52;4.20;;;;;;;;;;627576;23;1273;-65
2022/10/24 04:58:55;;;;;;;11.27;4.03;;;;;;;;;;630549;23;1174;-65
2022/10/24 05:00:04;;;;;;;15.20;4.20;;;;;;;;;;630389;23;2009;-65
2022/10/24 05:01:12;;;;;;;14.85;4.30;;;;;;;;;;627937;23;1410;-65
2022/10/24 05:02:20;;;;;;;16.25;4.32;;;;;;;;;;630938;23;1283;-65
2022/10/24 05:03:27;;;;;;;12.82;4.13;;;;;;;;;;631118;23;1406;-65
2022/10/24 05:04:35;;;;;;;14.27;4.20;;;;;;;;;;627415;23;1347;-64
2022/10/24 05:05:44;;;;;;;13.30;4.20;;;;;;;;;;631215;23;807;-65
2022/10/24 05:06:52;;;;;;;17.50;4.40;;;;;;;;;;633657;23;1366;-65
2022/10/24 05:08:00;;;;;;;14.05;3.92;;;;;;;;;;633993;23;1056;-64
2022/10/24 05:09:08;;;;;;;14.90;4.18;;;;;;;;;;627318;23;1359;-64
2022/10/24 05:10:16;;;;;;;12.57;4.00;;;;;;;;;;627662;23;1288;-65
2022/10/24 05:11:23;;;;;;;12.43;4.30;;;;;;;;;;631158;23;820;-65
2022/10/24 05:12:31;;;;;;;16.90;4.20;;;;;;;;;;629914;23;1003;-65
2022/10/24 05:13:41;;;;;;;13.20;3.92;;;;;;;;;;628138;23;1221;-65
2022/10/24 05:14:49;;;;;;;13.13;4.00;;;;;;;;;;626905;23;1292;-66
2022/10/24 05:15:57;;;;;;;13.57;4.40;;;;;;;;;;627848;23;1399;-65
2022/10/24 05:17:05;;;;;;;11.73;4.10;;;;;;;;;;626765;23;1065;-65
2022/10/24 05:18:13;;;;;;;16.55;4.10;;;;;;;;;;628003;23;1252;-65
2022/10/24 05:19:21;;;;;;;13.63;4.13;;;;;;;;;;630534;23;768;-65
2022/10/24 05:20:29;;;;;;;13.63;4.25;;;;;;;;;;631318;23;914;-65
2022/10/24 05:21:37;;;;;;;13.77;4.43;;;;;;;;;;627672;23;1356;-65
2022/10/24 05:22:45;;;;;;;14.40;4.13;;;;;;;;;;624523;23;1407;-65
2022/10/24 05:23:52;;;;;;;15.48;3.92;;;;;;;;;;628029;23;1351;-65
2022/10/24 05:25:01;;;;;;;12.43;4.10;;;;;;;;;;628123;23;1224;-65
2022/10/24 05:26:09;;;;;;;17.13;4.75;;;;;;;;;;630962;23;899;-65
2022/10/24 05:27:23;;;;;;;12.95;4.03;;;;;;;;;;627376;23;1271;-65
2022/10/24 05:28:31;;;;;;;15.27;4.40;;;;;;;;;;627128;23;1486;-65
2022/10/24 05:29:39;;;;;;;15.43;4.30;;;;;;;;;;627128;23;1090;-65
2022/10/24 05:30:46;;;;;;;11.38;3.97;;;;;;;;;;627651;23;1351;-65
2022/10/24 05:31:54;;;;;;;15.82;4.60;;;;;;;;;;628099;23;1339;-65
2022/10/24 05:33:02;;;;;;;12.50;3.97;;;;;;;;;;628101;23;1263;-65
2022/10/24 05:34:10;;;;;;;13.85;4.32;;;;;;;;;;630360;23;901;-66
2022/10/24 05:35:18;;;;;;;13.05;4.07;;;;;;;;;;629907;23;866;-65
2022/10/24 05:36:26;;;;;;;13.63;4.10;;;;;;;;;;627369;23;1284;-65
2022/10/24 05:37:34;;;;;;;14.85;4.30;;;;;;;;;;630123;23;1458;-65
2022/10/24 05:38:42;;;;;;;15.63;4.32;;;;;;;;;;627907;23;1560;-65
2022/10/24 05:39:50;;;;;;;14.40;3.90;;;;;;;;;;631096;23;1038;-65
2022/10/24 05:40:58;;;;;;;16.58;4.00;;;;;;;;;;630357;23;1266;-65
2022/10/24 05:42:06;;;;;;;12.18;4.10;;;;;;;;;;630858;23;859;-65
2022/10/24 05:43:15;;;;;;;18.25;4.30;;;;;;;;;;630551;23;1449;-65
2022/10/24 05:44:23;;;;;;;14.48;4.20;;;;;;;;;;628035;23;1292;-65
2022/10/24 05:45:30;;;;;;;15.35;4.10;;;;;;;;;;626763;23;1224;-65
2022/10/24 05:46:39;;;;;;;17.17;4.30;;;;;;;;;;627821;23;1277;-65
2022/10/24 05:47:47;;;;;;;13.23;4.07;;;;;;;;;;627489;23;995;-65
2022/10/24 05:48:55;;;;;;;16.30;4.05;;;;;;;;;;630763;23;1089;-65
2022/10/24 05:50:05;;;;;;;11.55;4.05;;;;;;;;;;627837;23;1119;-65
2022/10/24 05:51:12;;;;;;;13.10;4.03;;;;;;;;;;628112;23;1379;-65
2022/10/24 05:52:20;;;;;;;16.52;4.07;;;;;;;;;;631613;23;1453;-65
2022/10/24 05:53:28;;;;;;;13.93;3.88;;;;;;;;;;634061;23;1021;-65
2022/10/24 05:54:36;;;;;;;14.20;4.10;;;;;;;;;;631238;23;919;-65
2022/10/24 05:55:44;;;;;;;14.05;4.28;;;;;;;;;;629605;23;1283;-65
2022/10/24 05:56:51;;;;;;;14.77;4.20;;;;;;;;;;628574;23;1367;-65
2022/10/24 05:57:59;;;;;;;13.82;3.90;;;;;;;;;;630581;23;1401;-65
2022/10/24 05:59:07;;;;;;;12.85;3.90;;;;;;;;;;630449;23;1375;-65
2022/10/24 06:00:16;;;;;;;13.50;3.95;;;;;;;;;;627815;23;1347;-65
2022/10/24 06:01:24;;;;;;;14.10;4.30;;;;;;;;;;629998;23;1227;-65
2022/10/24 06:02:32;;;;;;;14.45;3.97;;;;;;;;;;630986;23;1424;-65
2022/10/24 06:03:40;;;;;;;13.00;3.80;;;;;;;;;;626631;23;1308;-65
2022/10/24 06:04:49;;;;;;;11.55;3.72;;;;;;;;;;628075;23;1422;-64
2022/10/24 06:05:51;;;;;;;14.68;3.92;;;;;;;;;;628153;23;1459;-64
2022/10/24 06:06:59;;;;;;;13.20;3.80;;;;;;;;;;628268;23;1284;-65
2022/10/24 06:08:07;;;;;;;12.52;3.80;;;;;;;;;;628031;23;1387;-65
2022/10/24 06:09:15;;;;;;;13.73;3.72;;;;;;;;;;627419;23;1459;-65
2022/10/24 06:10:24;;;;;;;13.55;3.75;;;;;;;;;;627968;23;1209;-65
2022/10/24 06:11:31;;;;;;;16.65;4.30;;;;;;;;;;631254;23;776;-66
2022/10/24 06:12:40;;;;;;;13.90;3.90;;;;;;;;;;630669;23;1365;-65
2022/10/24 06:13:48;;;;;;;12.85;3.80;;;;;;;;;;625107;23;1253;-65
2022/10/24 06:14:56;;;;;;;14.63;4.10;;;;;;;;;;628232;23;932;-65
2022/10/24 06:16:05;;;;;;;12.27;3.80;;;;;;;;;;628511;23;1356;-65
2022/10/24 06:17:13;;;;;;;10.88;3.75;;;;;;;;;;628359;23;1236;-65
2022/10/24 06:18:21;;;;;;;15.25;3.75;;;;;;;;;;628255;23;1077;-66
2022/10/24 06:19:31;;;;;;;17.80;3.80;;;;;;;;;;627926;23;1341;-65
2022/10/24 06:20:38;;;;;;;10.15;3.20;;;;;;;;;;628227;23;1364;-65
2022/10/24 06:21:47;;;;;;;14.90;3.75;;;;;;;;;;631066;23;752;-65
2022/10/24 06:22:55;;;;;;;10.25;3.70;;;;;;;;;;631071;23;1169;-65
2022/10/24 06:24:03;;;;;;;11.93;3.50;;;;;;;;;;627802;23;1247;-65
2022/10/24 06:25:11;;;;;;;12.52;3.67;;;;;;;;;;630501;23;1367;-66
2022/10/24 06:26:19;;;;;;;13.38;3.55;;;;;;;;;;631576;23;803;-65
2022/10/24 06:27:27;;;;;;;9.32;3.03;;;;;;;;;;630796;23;919;-65
2022/10/24 06:28:36;;;;;;;11.18;3.50;;;;;;;;;;628316;23;1530;-65
2022/10/24 06:29:44;;;;;;;10.73;3.38;;;;;;;;;;627890;23;1371;-65
2022/10/24 06:30:55;;;;;;;14.85;3.53;;;;;;;;;;628437;23;1364;-65
2022/10/24 06:32:03;;;;;;;14.27;3.50;;;;;;;;;;627222;23;1490;-65
2022/10/24 06:33:11;;;;;;;12.65;3.55;;;;;;;;;;628225;23;1578;-65
2022/10/24 06:34:19;;;;;;;10.95;3.30;;;;;;;;;;630635;23;1489;-66
2022/10/24 06:34:47;;;;;;;13.27;3.60;;;;;;;;;;630170;23;1165;-65
2022/10/24 06:35:03;;;;;;;11.60;3.30;;;;;;;;;;631164;23;1383;-65
2022/10/24 06:35:18;;;;;;;12.30;3.40;;;;;;;;;;630430;23;1287;-65
2022/10/24 06:35:34;;;;;;;13.18;3.53;;;;;;;;;;628030;23;1331;-65
2022/10/24 06:35:49;;;;;;;12.67;3.70;;;;;;;;;;624808;23;1395;-65
2022/10/24 06:36:08;;;;;;;10.30;3.42;;;;;;;;;;628175;23;1214;-66
2022/10/24 06:36:23;;;;;;;12.70;3.10;;;;;;;;;;625035;23;1394;-65
2022/10/24 06:36:38;;;;;;;14.68;3.30;;;;;;;;;;621475;23;1186;-65
2022/10/24 06:37:46;;;;;;;12.63;3.50;;;;;;;;;;625231;23;1092;-65
2022/10/24 06:38:54;;;;;;;10.73;3.20;;;;;;;;;;628071;23;863;-65
2022/10/24 06:40:02;;;;;;;16.17;3.70;;;;;;;;;;630641;23;918;-65
2022/10/24 06:41:10;;;;;;;11.32;3.33;;;;;;;;;;630314;23;1861;-65
2022/10/24 06:42:18;;;;;;;10.40;3.30;;;;;;;;;;627335;23;1363;-65
2022/10/24 06:43:26;;;;;;;12.48;3.40;;;;;;;;;;628309;23;1581;-65
2022/10/24 06:44:35;;;;;;;11.80;3.20;;;;;;;;;;627244;23;1189;-65
2022/10/24 06:45:43;;;;;;;12.98;3.55;;;;;;;;;;628109;23;1398;-66
2022/10/24 06:46:51;;;;;;;10.77;3.15;;;;;;;;;;627234;23;946;-65
2022/10/24 06:47:59;;;;;;;14.68;3.40;;;;;;;;;;627988;23;1351;-65
2022/10/24 06:49:06;;;;;;;14.02;3.30;;;;;;;;;;629998;23;883;-65
2022/10/24 06:50:14;;;;;;;11.25;3.03;;;;;;;;;;631014;23;1185;-65
2022/10/24 06:51:22;;;;;;;12.90;3.13;;;;;;;;;;631017;23;1260;-66
2022/10/24 06:52:31;;;;;;;11.98;3.30;;;;;;;;;;628014;23;1319;-64
2022/10/24 06:53:38;;;;;;;12.15;3.35;;;;;;;;;;630857;23;1330;-65
2022/10/24 06:54:46;;;;;;;13.90;3.53;;;;;;;;;;631016;23;1287;-65
2022/10/24 06:55:58;;;;;;;11.57;3.10;;;;;;;;;;631330;23;1045;-65
2022/10/24 06:57:06;;;;;;;10.52;3.17;;;;;;;;;;631269;23;1100;-66
2022/10/24 06:58:14;;;;;;;12.90;3.10;;;;;;;;;;630822;23;1355;-65
2022/10/24 06:59:23;;;;;;;13.40;3.17;;;;;;;;;;624832;23;1567;-65
2022/10/24 07:00:36;;;;;;;12.27;3.20;;;;;;;;;;628073;23;990;-65
2022/10/24 07:01:44;;;;;;;13.55;3.38;;;;;;;;;;630650;23;1353;-65
2022/10/24 07:02:52;;;;;;;11.82;3.10;;;;;;;;;;627974;23;1248;-65
2022/10/24 07:04:05;;;;;;;8.73;2.80;;;;;;;;;;627142;23;1355;-65